Milford Haven, United Kingdom
Current Conditions -  °F | °C
As of 8:50 PM on Tuesday 21 Oct 2014 (Local Time) from EGOP Reporting Station
Broken Clouds Broken Clouds  
Wind Chill: 50°   Ceiling: 4700
Heat Index: 50°   Visibility: 6mi
Dew Point: 43°   Wind: 13mph
Humidity: 76%   Direction: 310°NW
Pressure: 30.21"   Gusts: NA
Location:  51.71°N, 5.03°W
Report Text: EGOP 211950Z AUTO 31011KT 9999 // SCT041/// BKN047/// 10/06 Q1023
Loading
Personal Weather Stations






























Interactive Weather Map
Tropical Storm Tracking
New forecast layout! Learn more

10-Day Weather Forecast

Advertisements
Track Severe Weather on mobile